Time;durP1;ratioP1;P1;durP2;ratioP2;P2;SDS_P1;SDS_P2;PMS_P1;PMS_P2;Temp;Humidity;BMP_temperature;BMP_pressure;BME280_temperature;BME280_humidity;BME280_pressure;Samples;Min_cycle;Max_cycle;Signal;HPM_P1;HPM_P2
2023/04/17 00:00:51;;;;;;;;;;;;;;;10.53;76.44;94430.50;5015869;28;1101;-54
2023/04/17 00:03:17;;;;;;;;;;;;;;;10.65;75.72;94426.38;5016100;28;980;-54
2023/04/17 00:05:45;;;;;;;;;;;;;;;10.66;75.73;94422.69;5015801;28;1049;-53
2023/04/17 00:08:11;;;;;;;;;;;;;;;10.74;75.90;94417.28;5015376;28;1639;-55
2023/04/17 00:10:37;;;;;;;;;;;;;;;10.80;75.78;94425.59;5015560;28;1389;-55
2023/04/17 00:13:03;;;;;;;;;;;;;;;10.62;76.17;94418.69;5015808;28;971;-55
2023/04/17 00:15:29;;;;;;;;;;;;;;;10.71;75.75;94409.59;5015705;28;1206;-54
2023/04/17 00:17:55;;;;;;;;;;;;;;;10.75;75.91;94418.09;5015461;28;1898;-55
2023/04/17 00:20:21;;;;;;;;;;;;;;;10.55;75.88;94413.25;5015476;28;1103;-55
2023/04/17 00:22:47;;;;;;;;;;;;;;;10.45;76.54;94415.34;5015765;28;1021;-54
2023/04/17 00:25:13;;;;;;;;;;;;;;;10.52;76.42;94402.91;5015373;28;1054;-54
2023/04/17 00:27:41;;;;;;;;;;;;;;;10.63;76.50;94408.84;5015560;28;1062;-55
2023/04/17 00:30:07;;;;;;;;;;;;;;;10.60;76.25;94411.88;5015350;28;1097;-55
2023/04/17 00:32:33;;;;;;;;;;;;;;;10.48;77.07;94411.47;5015203;28;1038;-54
2023/04/17 00:34:59;;;;;;;;;;;;;;;10.35;77.03;94414.72;5015222;28;1097;-55
2023/04/17 00:37:25;;;;;;;;;;;;;;;10.00;78.27;94418.75;5015221;28;1991;-55
2023/04/17 00:39:51;;;;;;;;;;;;;;;9.97;78.88;94425.28;5015115;28;1047;-55
2023/04/17 00:42:17;;;;;;;;;;;;;;;10.04;78.66;94417.41;5015394;28;1034;-55
2023/04/17 00:44:43;;;;;;;;;;;;;;;10.17;78.18;94420.34;5015190;28;1030;-55
2023/04/17 00:47:09;;;;;;;;;;;;;;;10.35;77.46;94423.56;5015275;28;991;-55
2023/04/17 00:49:35;;;;;;;;;;;;;;;10.53;77.04;94425.13;5025144;28;1225;-55
2023/04/17 00:52:01;;;;;;;;;;;;;;;10.32;77.32;94415.94;5014905;28;1047;-55
2023/04/17 00:54:28;;;;;;;;;;;;;;;10.29;77.10;94416.25;5015106;28;1033;-55
2023/04/17 00:56:55;;;;;;;;;;;;;;;10.37;77.24;94415.38;5014981;28;1186;-55
2023/04/17 00:59:21;;;;;;;;;;;;;;;10.15;77.55;94428.53;5014757;28;1969;-55
2023/04/17 01:01:47;;;;;;;;;;;;;;;10.17;77.79;94417.66;5014499;28;1131;-55
2023/04/17 01:04:13;;;;;;;;;;;;;;;10.30;78.04;94419.72;5014980;28;955;-55
2023/04/17 01:06:40;;;;;;;;;;;;;;;10.27;77.95;94415.59;5014908;28;1022;-55
2023/04/17 01:09:07;;;;;;;;;;;;;;;10.19;78.03;94410.31;5013557;28;1212;-55
2023/04/17 01:11:33;;;;;;;;;;;;;;;10.28;78.10;94413.75;5014172;28;1417;-55
2023/04/17 01:13:59;;;;;;;;;;;;;;;10.15;77.90;94414.34;5014876;28;1017;-55
2023/04/17 01:16:26;;;;;;;;;;;;;;;10.06;78.31;94412.72;5014438;28;1050;-54
2023/04/17 01:18:52;;;;;;;;;;;;;;;10.11;78.19;94410.34;5014694;28;2001;-55
2023/04/17 01:21:18;;;;;;;;;;;;;;;10.19;78.76;94412.97;5014059;28;1061;-55
2023/04/17 01:23:48;;;;;;;;;;;;;;;10.17;78.40;94404.31;5014760;28;1086;-55
2023/04/17 01:26:16;;;;;;;;;;;;;;;10.10;78.52;94406.84;4996851;28;1124;-55
2023/04/17 01:28:42;;;;;;;;;;;;;;;9.89;79.42;94409.31;5014545;28;971;-55
2023/04/17 01:31:13;;;;;;;;;;;;;;;9.93;79.03;94411.44;5013925;28;1244;-55
2023/04/17 01:33:39;;;;;;;;;;;;;;;10.01;78.36;94407.91;5014438;28;975;-55
2023/04/17 01:36:05;;;;;;;;;;;;;;;10.12;78.19;94412.00;5014315;28;1023;-55
2023/04/17 01:38:31;;;;;;;;;;;;;;;10.22;78.31;94409.94;4996840;28;1997;-55
2023/04/17 01:40:57;;;;;;;;;;;;;;;10.00;77.88;94408.06;5013990;28;1038;-55
2023/04/17 01:43:23;;;;;;;;;;;;;;;9.79;78.92;94412.19;5013994;28;1087;-55
2023/04/17 01:45:49;;;;;;;;;;;;;;;9.93;79.08;94407.94;5014003;28;1101;-55
2023/04/17 01:48:15;;;;;;;;;;;;;;;9.86;78.65;94415.81;5014096;28;1047;-55
2023/04/17 01:50:41;;;;;;;;;;;;;;;9.89;78.54;94411.97;5012902;28;1420;-55
2023/04/17 01:53:07;;;;;;;;;;;;;;;10.03;78.31;94405.88;5014193;28;964;-54
2023/04/17 01:55:33;;;;;;;;;;;;;;;10.07;78.67;94412.56;5013980;28;963;-55
2023/04/17 01:57:59;;;;;;;;;;;;;;;9.78;79.10;94415.84;5014026;28;1991;-55
2023/04/17 02:00:25;;;;;;;;;;;;;;;9.80;79.08;94413.84;5013356;28;1042;-55
2023/04/17 02:02:51;;;;;;;;;;;;;;;9.91;78.86;94412.63;5013728;28;2018;-54
2023/04/17 02:05:16;;;;;;;;;;;;;;;9.96;78.09;94410.28;5013739;28;958;-55
2023/04/17 02:07:42;;;;;;;;;;;;;;;9.95;78.32;94404.09;5013503;28;1101;-55
2023/04/17 02:10:09;;;;;;;;;;;;;;;10.05;78.47;94403.03;5013813;28;1039;-55
2023/04/17 02:12:34;;;;;;;;;;;;;;;9.96;78.75;94408.44;5013197;28;1564;-55
2023/04/17 02:15:00;;;;;;;;;;;;;;;9.70;79.42;94407.91;5013485;28;1129;-54
2023/04/17 02:17:26;;;;;;;;;;;;;;;9.47;80.45;94408.66;5013451;28;2001;-55
2023/04/17 02:19:52;;;;;;;;;;;;;;;9.46;81.13;94409.66;5013179;28;932;-55
2023/04/17 02:22:18;;;;;;;;;;;;;;;9.73;80.57;94411.06;5013443;28;1159;-55
2023/04/17 02:24:44;;;;;;;;;;;;;;;9.87;79.49;94411.31;5013429;28;1038;-55
2023/04/17 02:27:10;;;;;;;;;;;;;;;10.05;78.71;94409.19;5013470;28;1060;-55
2023/04/17 02:29:36;;;;;;;;;;;;;;;10.09;78.28;94407.88;5013372;28;1070;-55
2023/04/17 02:32:02;;;;;;;;;;;;;;;9.89;79.06;94401.31;5013052;28;1213;-55
2023/04/17 02:34:28;;;;;;;;;;;;;;;9.75;79.93;94402.84;5013461;28;1015;-55
2023/04/17 02:36:54;;;;;;;;;;;;;;;9.89;79.16;94404.78;5013638;28;1131;-55
2023/04/17 02:39:20;;;;;;;;;;;;;;;10.00;79.29;94411.59;5013152;28;2053;-55
2023/04/17 02:41:46;;;;;;;;;;;;;;;9.95;79.95;94405.94;5012946;28;1100;-54
2023/04/17 02:44:12;;;;;;;;;;;;;;;9.94;78.97;94405.09;5013422;28;1039;-55
2023/04/17 02:46:38;;;;;;;;;;;;;;;9.73;79.92;94399.53;5013470;28;1050;-55
2023/04/17 02:49:04;;;;;;;;;;;;;;;9.48;80.86;94406.81;5013336;28;1030;-55
2023/04/17 02:51:30;;;;;;;;;;;;;;;9.40;81.65;94407.69;5013082;28;1054;-55
2023/04/17 02:53:56;;;;;;;;;;;;;;;9.61;80.97;94407.09;5013389;28;1056;-55
2023/04/17 02:56:22;;;;;;;;;;;;;;;9.80;80.12;94411.19;5013162;28;1048;-55
2023/04/17 02:58:48;;;;;;;;;;;;;;;9.92;79.55;94406.28;5013047;28;1898;-55
2023/04/17 03:01:14;;;;;;;;;;;;;;;9.72;80.48;94409.38;5013037;28;1247;-55
2023/04/17 03:03:41;;;;;;;;;;;;;;;9.74;81.13;94411.88;5013290;28;1042;-55
2023/04/17 03:06:07;;;;;;;;;;;;;;;9.55;81.34;94402.47;5013312;28;981;-55
2023/04/17 03:08:34;;;;;;;;;;;;;;;9.50;81.54;94412.81;5012905;28;1099;-55
2023/04/17 03:11:01;;;;;;;;;;;;;;;9.68;81.14;94402.72;5012778;28;1658;-55
2023/04/17 03:13:27;;;;;;;;;;;;;;;9.62;81.81;94408.78;5012918;28;1037;-55
2023/04/17 03:15:53;;;;;;;;;;;;;;;9.67;81.62;94405.56;5013180;28;964;-55
2023/04/17 03:18:19;;;;;;;;;;;;;;;9.73;81.42;94403.06;5013019;28;1985;-55
2023/04/17 03:20:45;;;;;;;;;;;;;;;9.75;81.17;94405.53;5012756;28;1162;-55
2023/04/17 03:23:11;;;;;;;;;;;;;;;9.84;80.34;94409.00;5013101;28;1043;-55
2023/04/17 03:25:37;;;;;;;;;;;;;;;9.87;80.10;94406.00;5012994;28;1010;-55
2023/04/17 03:28:03;;;;;;;;;;;;;;;9.85;80.76;94405.34;4995503;28;1038;-55
2023/04/17 03:30:29;;;;;;;;;;;;;;;9.79;80.65;94404.19;5012726;28;1055;-55
2023/04/17 03:32:55;;;;;;;;;;;;;;;9.75;80.85;94403.72;5016155;28;1194;-55
2023/04/17 03:35:21;;;;;;;;;;;;;;;9.88;80.27;94405.78;5016232;28;1035;-55
2023/04/17 03:37:47;;;;;;;;;;;;;;;9.99;80.05;94393.06;5016420;28;1911;-55
2023/04/17 03:40:13;;;;;;;;;;;;;;;9.94;80.61;94401.59;5016504;28;1028;-55
2023/04/17 03:42:39;;;;;;;;;;;;;;;9.88;81.31;94405.78;5015924;28;1504;-54
2023/04/17 03:45:05;;;;;;;;;;;;;;;9.82;81.39;94403.00;5016427;28;1019;-54
2023/04/17 03:47:31;;;;;;;;;;;;;;;9.96;81.09;94399.59;5015911;28;1050;-54
2023/04/17 03:49:57;;;;;;;;;;;;;;;9.92;81.30;94399.13;5016033;28;1079;-52
2023/04/17 03:52:23;;;;;;;;;;;;;;;9.95;81.22;94393.41;5015971;28;1095;-53
2023/04/17 03:54:49;;;;;;;;;;;;;;;10.12;80.58;94398.66;5016298;28;1027;-54
2023/04/17 03:57:15;;;;;;;;;;;;;;;10.16;80.33;94403.47;5015868;28;1906;-55
2023/04/17 03:59:41;;;;;;;;;;;;;;;9.85;81.49;94405.34;4998818;28;1194;-56
2023/04/17 04:02:07;;;;;;;;;;;;;;;9.73;82.17;94410.19;4998213;28;1220;-54
2023/04/17 04:04:33;;;;;;;;;;;;;;;9.79;81.90;94406.88;5015878;28;994;-53
2023/04/17 04:07:00;;;;;;;;;;;;;;;9.96;81.17;94395.09;5015961;28;1010;-55
2023/04/17 04:09:26;;;;;;;;;;;;;;;10.11;80.65;94396.97;5015550;28;1253;-54
2023/04/17 04:11:52;;;;;;;;;;;;;;;10.25;80.57;94390.88;5011129;28;1646;-54
2023/04/17 04:14:18;;;;;;;;;;;;;;;10.29;80.55;94394.03;5015562;28;986;-53
2023/04/17 04:16:44;;;;;;;;;;;;;;;10.30;80.79;94391.22;5015958;28;1027;-54
2023/04/17 04:19:10;;;;;;;;;;;;;;;10.01;81.82;94391.88;5015502;28;1938;-54
2023/04/17 04:21:36;;;;;;;;;;;;;;;9.85;82.23;94400.81;5015294;28;1253;-53
2023/04/17 04:24:02;;;;;;;;;;;;;;;9.70;82.50;94402.56;5015781;28;986;-54
2023/04/17 04:26:28;;;;;;;;;;;;;;;9.62;83.49;94407.91;5015492;28;1062;-53
2023/04/17 04:28:55;;;;;;;;;;;;;;;9.81;82.56;94402.19;5015375;28;1040;-54
2023/04/17 04:31:21;;;;;;;;;;;;;;;10.10;81.50;94408.69;5015344;28;1354;-55
2023/04/17 04:33:53;;;;;;;;;;;;;;;10.24;81.01;94409.75;5015531;28;999;-55
2023/04/17 04:36:20;;;;;;;;;;;;;;;10.45;80.51;94419.84;5015176;28;1038;-54
2023/04/17 04:38:49;;;;;;;;;;;;;;;10.52;80.26;94420.78;5015113;28;1914;-54
2023/04/17 04:41:18;;;;;;;;;;;;;;;10.65;79.63;94423.69;5014897;28;1061;-54
2023/04/17 04:43:44;;;;;;;;;;;;;;;10.68;79.53;94420.69;5015281;28;1050;-54
2023/04/17 04:46:10;;;;;;;;;;;;;;;10.67;79.84;94424.34;5015107;28;1119;-54
2023/04/17 04:48:36;;;;;;;;;;;;;;;10.67;79.65;94419.00;5015094;28;1065;-54
2023/04/17 04:51:02;;;;;;;;;;;;;;;10.73;80.27;94422.78;5014783;28;1028;-55
2023/04/17 04:53:28;;;;;;;;;;;;;;;10.75;79.98;94431.47;5015150;28;967;-54
2023/04/17 04:55:54;;;;;;;;;;;;;;;10.91;79.19;94430.50;5015184;28;1045;-55
2023/04/17 04:58:20;;;;;;;;;;;;;;;11.09;79.03;94422.97;5015070;28;1992;-55
2023/04/17 05:00:46;;;;;;;;;;;;;;;11.16;79.40;94431.13;5014740;28;1877;-55
2023/04/17 05:03:12;;;;;;;;;;;;;;;11.30;78.13;94432.13;5014361;28;1277;-54
2023/04/17 05:05:39;;;;;;;;;;;;;;;11.46;77.30;94433.81;5014932;28;1018;-55
2023/04/17 05:08:05;;;;;;;;;;;;;;;11.57;76.95;94443.22;5014116;28;2031;-54
2023/04/17 05:10:31;;;;;;;;;;;;;;;11.64;76.77;94438.78;5014609;28;1782;-55
2023/04/17 05:12:57;;;;;;;;;;;;;;;11.68;76.32;94430.19;5014352;28;1890;-55
2023/04/17 05:15:23;;;;;;;;;;;;;;;11.78;75.79;94435.28;5014699;28;1083;-54
2023/04/17 05:17:50;;;;;;;;;;;;;;;11.90;74.77;94436.50;5014354;28;1906;-55
2023/04/17 05:20:16;;;;;;;;;;;;;;;11.98;74.36;94434.75;5014635;28;985;-55
2023/04/17 05:22:42;;;;;;;;;;;;;;;12.04;73.84;94440.16;5014283;28;1324;-55
2023/04/17 05:25:08;;;;;;;;;;;;;;;12.16;73.65;94442.38;5013201;28;1752;-55
2023/04/17 05:27:34;;;;;;;;;;;;;;;12.16;73.96;94447.72;5014238;28;1072;-55
2023/04/17 05:30:00;;;;;;;;;;;;;;;12.17;74.59;94441.34;5014488;28;1049;-54
2023/04/17 05:32:26;;;;;;;;;;;;;;;12.15;74.40;94448.75;5014088;28;1145;-56
2023/04/17 05:34:52;;;;;;;;;;;;;;;12.12;73.73;94439.22;5014317;28;979;-54
2023/04/17 05:37:18;;;;;;;;;;;;;;;12.18;73.91;94445.69;5013991;28;1987;-54
2023/04/17 05:39:44;;;;;;;;;;;;;;;12.36;73.28;94439.94;5014100;28;1183;-55
2023/04/17 05:42:10;;;;;;;;;;;;;;;12.53;73.32;94441.34;4996304;28;1161;-54
2023/04/17 05:44:35;;;;;;;;;;;;;;;12.54;72.57;94443.03;5013963;28;1978;-54
2023/04/17 05:47:02;;;;;;;;;;;;;;;12.55;75.34;94444.66;5014267;28;969;-54
2023/04/17 05:49:28;;;;;;;;;;;;;;;12.63;75.03;94441.84;5013771;28;931;-54
2023/04/17 05:51:54;;;;;;;;;;;;;;;12.49;75.95;94453.47;5013995;28;1292;-54
2023/04/17 05:54:21;;;;;;;;;;;;;;;12.35;76.64;94451.66;5013421;28;1078;-55
2023/04/17 05:56:48;;;;;;;;;;;;;;;12.25;76.99;94455.47;5008394;28;1513;-55
2023/04/17 05:59:14;;;;;;;;;;;;;;;12.17;77.66;94452.91;5007844;28;1998;-55
2023/04/17 06:01:42;;;;;;;;;;;;;;;12.27;77.16;94460.63;4998676;28;1239;-54
2023/04/17 06:04:08;;;;;;;;;;;;;;;12.43;76.33;94459.59;5013676;28;899;-54
2023/04/17 06:06:34;;;;;;;;;;;;;;;12.61;76.43;94453.78;5013667;28;986;-54
2023/04/17 06:09:00;;;;;;;;;;;;;;;12.61;75.86;94456.47;5013480;28;1190;-54
2023/04/17 06:11:26;;;;;;;;;;;;;;;12.84;75.14;94457.13;5013233;28;1870;-53
2023/04/17 06:13:52;;;;;;;;;;;;;;;13.11;73.63;94460.06;5013898;28;994;-54
2023/04/17 06:16:18;;;;;;;;;;;;;;;13.16;73.40;94460.28;5013690;28;968;-54
2023/04/17 06:18:44;;;;;;;;;;;;;;;13.55;71.61;94467.03;5013381;28;1918;-54
2023/04/17 06:21:10;;;;;;;;;;;;;;;13.70;71.61;94466.06;5013609;28;1013;-54
2023/04/17 06:23:36;;;;;;;;;;;;;;;13.80;70.01;94466.56;5013311;28;1037;-53
2023/04/17 06:26:02;;;;;;;;;;;;;;;13.93;69.70;94471.19;5013429;28;1049;-54
2023/04/17 06:28:28;;;;;;;;;;;;;;;14.05;69.83;94469.59;5011944;28;1642;-54
2023/04/17 06:30:54;;;;;;;;;;;;;;;13.88;69.31;94476.31;5013680;28;1042;-54
2023/04/17 06:33:20;;;;;;;;;;;;;;;13.99;70.14;94478.47;5013018;28;1071;-54
2023/04/17 06:35:46;;;;;;;;;;;;;;;14.04;69.46;94474.16;5013493;28;974;-53
2023/04/17 06:38:12;;;;;;;;;;;;;;;14.09;69.29;94470.03;5013527;28;2001;-54
2023/04/17 06:40:38;;;;;;;;;;;;;;;13.93;70.02;94479.25;5013583;28;959;-54
2023/04/17 06:43:04;;;;;;;;;;;;;;;13.91;70.55;94473.25;5013435;28;1076;-54
2023/04/17 06:45:31;;;;;;;;;;;;;;;14.10;69.77;94469.84;5012689;28;1651;-55
2023/04/17 06:47:57;;;;;;;;;;;;;;;14.47;68.00;94475.75;5005049;28;1417;-55
2023/04/17 06:50:23;;;;;;;;;;;;;;;14.61;66.95;94474.81;4993495;28;1917;-55
2023/04/17 06:52:49;;;;;;;;;;;;;;;14.72;67.58;94475.25;5007561;28;1259;-55
2023/04/17 06:55:16;;;;;;;;;;;;;;;14.81;67.53;94469.47;5032724;28;1054;-55
2023/04/17 06:57:41;;;;;;;;;;;;;;;14.95;66.57;94466.81;5012395;28;2035;-55
2023/04/17 07:00:08;;;;;;;;;;;;;;;14.87;65.59;94467.81;4999796;28;986;-55
2023/04/17 07:02:34;;;;;;;;;;;;;;;14.97;65.47;94465.59;5006477;28;1280;-55
2023/04/17 07:05:00;;;;;;;;;;;;;;;14.86;65.67;94473.44;5012991;28;1046;-55
2023/04/17 07:07:28;;;;;;;;;;;;;;;14.96;64.73;94465.78;5015598;28;1098;-54
2023/04/17 07:09:54;;;;;;;;;;;;;;;14.83;64.40;94470.13;5015741;28;1054;-55
2023/04/17 07:12:21;;;;;;;;;;;;;;;14.89;64.19;94468.47;5016796;28;1430;-54
2023/04/17 07:14:47;;;;;;;;;;;;;;;14.96;63.14;94471.97;5017091;28;1078;-54
2023/04/17 07:17:13;;;;;;;;;;;;;;;15.06;63.29;94478.84;5016595;28;1058;-55
2023/04/17 07:19:39;;;;;;;;;;;;;;;15.47;62.90;94473.28;5016660;28;1993;-56
2023/04/17 07:22:06;;;;;;;;;;;;;;;15.63;60.10;94480.09;5016679;28;1120;-53
2023/04/17 07:24:33;;;;;;;;;;;;;;;15.52;61.34;94478.88;5016523;28;1432;-55
2023/04/17 07:27:03;;;;;;;;;;;;;;;15.60;60.78;94485.91;5016848;28;1202;-55
2023/04/17 07:29:29;;;;;;;;;;;;;;;15.62;61.52;94479.25;5016539;28;1050;-55
2023/04/17 07:31:55;;;;;;;;;;;;;;;15.64;60.45;94487.16;5016644;28;1089;-55
2023/04/17 07:34:23;;;;;;;;;;;;;;;15.37;60.99;94489.03;5016036;28;1107;-55
2023/04/17 07:36:53;;;;;;;;;;;;;;;14.97;60.18;94484.44;5016420;28;972;-54
2023/04/17 07:39:19;;;;;;;;;;;;;;;14.88;61.03;94479.44;5016165;28;1910;-55
2023/04/17 07:41:45;;;;;;;;;;;;;;;14.86;62.49;94476.94;5016632;28;1002;-55
2023/04/17 07:44:11;;;;;;;;;;;;;;;15.05;60.46;94479.88;5016299;28;1065;-55
2023/04/17 07:46:37;;;;;;;;;;;;;;;15.17;59.13;94473.66;5016155;28;1081;-56
2023/04/17 07:49:03;;;;;;;;;;;;;;;15.21;59.90;94485.72;5010279;28;1803;-55
2023/04/17 07:51:30;;;;;;;;;;;;;;;15.12;59.70;94483.38;4999566;28;1003;-55
2023/04/17 07:53:56;;;;;;;;;;;;;;;14.95;60.95;94478.41;5008221;28;1037;-55
2023/04/17 07:56:23;;;;;;;;;;;;;;;14.99;60.76;94476.16;5015949;28;1038;-55
2023/04/17 07:58:52;;;;;;;;;;;;;;;15.11;60.55;94479.06;5009326;28;2211;-55
2023/04/17 08:01:19;;;;;;;;;;;;;;;15.23;60.28;94483.63;5003922;28;1010;-56
2023/04/17 08:03:46;;;;;;;;;;;;;;;15.05;61.93;94479.88;5006304;28;1074;-54
2023/04/17 08:06:12;;;;;;;;;;;;;;;14.85;61.10;94483.34;5015776;28;1062;-55
2023/04/17 08:08:38;;;;;;;;;;;;;;;14.53;62.08;94485.75;5015738;28;1376;-55
2023/04/17 08:11:05;;;;;;;;;;;;;;;14.29;63.60;94484.41;5015625;28;1581;-55
2023/04/17 08:13:31;;;;;;;;;;;;;;;14.30;62.46;94490.59;5015587;28;1419;-55
2023/04/17 08:15:58;;;;;;;;;;;;;;;14.24;62.76;94486.84;5015711;28;962;-56
2023/04/17 08:18:24;;;;;;;;;;;;;;;14.00;63.13;94498.91;5014998;28;2001;-55
2023/04/17 08:20:50;;;;;;;;;;;;;;;13.74;65.03;94497.72;5015768;28;1042;-55
2023/04/17 08:23:16;;;;;;;;;;;;;;;13.66;66.04;94506.78;5015408;28;1173;-55
2023/04/17 08:25:43;;;;;;;;;;;;;;;13.53;66.66;94495.13;5014987;28;1295;-55
2023/04/17 08:28:09;;;;;;;;;;;;;;;13.58;66.53;94503.41;5015392;28;1057;-56
2023/04/17 08:30:35;;;;;;;;;;;;;;;13.61;66.64;94503.00;5015463;28;975;-56
2023/04/17 08:33:01;;;;;;;;;;;;;;;13.67;66.43;94497.69;5015541;28;1050;-56
2023/04/17 08:35:27;;;;;;;;;;;;;;;13.65;67.35;94507.78;5014347;28;1049;-55
2023/04/17 08:37:55;;;;;;;;;;;;;;;13.59;66.86;94508.59;5015290;28;1981;-55
2023/04/17 08:40:23;;;;;;;;;;;;;;;13.45;67.95;94507.66;5015185;28;1113;-55
2023/04/17 08:42:50;;;;;;;;;;;;;;;13.40;69.71;94510.09;5015509;28;1084;-54
2023/04/17 08:45:17;;;;;;;;;;;;;;;13.46;69.85;94522.72;5015320;28;1033;-56
2023/04/17 08:47:43;;;;;;;;;;;;;;;13.47;69.67;94513.66;5014900;28;1223;-55
2023/04/17 08:50:10;;;;;;;;;;;;;;;13.53;69.77;94512.06;5015308;28;991;-56
2023/04/17 08:52:41;;;;;;;;;;;;;;;13.52;69.20;94515.75;5015034;28;1095;-55
2023/04/17 08:55:09;;;;;;;;;;;;;;;13.66;70.26;94516.69;5013713;28;1070;-56
2023/04/17 08:57:51;;;;;;;;;;;;;;;13.68;71.32;94522.72;5012824;28;2001;-55
2023/04/17 09:00:22;;;;;;;;;;;;;;;13.73;70.11;94516.72;4996221;28;951;-55
2023/04/17 09:02:53;;;;;;;;;;;;;;;13.89;71.14;94519.13;5015106;28;1110;-55
2023/04/17 09:05:20;;;;;;;;;;;;;;;14.01;70.25;94522.09;4999000;28;1061;-56
2023/04/17 09:07:47;;;;;;;;;;;;;;;14.09;66.09;94519.22;5005736;28;1489;-56
2023/04/17 09:10:13;;;;;;;;;;;;;;;14.09;65.32;94521.91;5014602;28;1054;-55
2023/04/17 09:12:40;;;;;;;;;;;;;;;14.05;64.82;94516.09;5014883;28;1552;-56
2023/04/17 09:15:16;;;;;;;;;;;;;;;14.10;64.56;94522.78;5014848;28;1029;-56
2023/04/17 09:17:42;;;;;;;;;;;;;;;14.13;66.32;94528.56;5010638;28;1914;-55
2023/04/17 09:20:10;;;;;;;;;;;;;;;14.19;63.80;94526.94;5012763;28;1850;-56
2023/04/17 09:22:39;;;;;;;;;;;;;;;14.24;65.92;94519.94;5003652;28;1014;-56
2023/04/17 09:25:15;;;;;;;;;;;;;;;14.18;63.53;94528.78;4994963;28;1057;-56
2023/04/17 09:27:42;;;;;;;;;;;;;;;14.06;64.21;94531.22;5000123;28;1765;-56
2023/04/17 09:30:08;;;;;;;;;;;;;;;14.14;63.63;94532.09;5003638;28;1026;-55
2023/04/17 09:32:34;;;;;;;;;;;;;;;14.18;63.81;94542.25;4985670;28;1987;-56
2023/04/17 09:35:01;;;;;;;;;;;;;;;14.16;62.16;94535.41;4994614;28;1942;-56
2023/04/17 09:37:47;;;;;;;;;;;;;;;14.08;62.21;94536.41;5006567;28;1644;-55
2023/04/17 09:40:13;;;;;;;;;;;;;;;14.07;63.50;94540.09;5006124;28;1883;-56
2023/04/17 09:43:05;;;;;;;;;;;;;;;14.12;62.87;94543.03;5004790;28;1049;-56
2023/04/17 09:45:34;;;;;;;;;;;;;;;14.11;63.72;94545.91;4991953;28;1895;-56
2023/04/17 09:48:04;;;;;;;;;;;;;;;14.10;62.98;94542.41;5005760;28;1062;-56
2023/04/17 09:50:31;;;;;;;;;;;;;;;14.10;62.77;94537.03;5002352;28;1824;-56
2023/04/17 09:52:57;;;;;;;;;;;;;;;14.08;62.88;94538.28;5013954;28;1030;-55
2023/04/17 09:55:25;;;;;;;;;;;;;;;14.02;62.68;94534.50;5013912;28;1153;-55
2023/04/17 09:57:55;;;;;;;;;;;;;;;14.07;63.40;94542.78;5013819;28;1911;-55
2023/04/17 10:00:22;;;;;;;;;;;;;;;14.06;63.99;94535.78;5013501;28;1205;-55
2023/04/17 10:02:52;;;;;;;;;;;;;;;13.91;63.79;94535.88;5014210;28;979;-55
2023/04/17 10:05:19;;;;;;;;;;;;;;;14.02;63.91;94529.13;5009567;28;1929;-55
2023/04/17 10:11:44;;;;;;;;;;;;;;;14.08;63.17;94530.22;5002021;28;1522;-55
2023/04/17 10:14:23;;;;;;;;;;;;;;;14.15;63.64;94521.16;5013563;28;1503;-56
2023/04/17 10:16:49;;;;;;;;;;;;;;;14.30;64.35;94512.09;5013638;28;990;-55
2023/04/17 10:19:31;;;;;;;;;;;;;;;14.59;63.28;94511.03;5013587;28;1989;-55
2023/04/17 10:22:18;;;;;;;;;;;;;;;14.93;62.05;94511.94;5013634;28;1049;-55
2023/04/17 10:25:13;;;;;;;;;;;;;;;15.00;61.85;94507.41;5007089;28;2075;-56
2023/04/17 10:27:40;;;;;;;;;;;;;;;15.21;60.60;94509.09;4995600;28;1225;-55
2023/04/17 10:30:11;;;;;;;;;;;;;;;15.51;61.07;94509.53;4998115;28;1713;-55
2023/04/17 10:32:38;;;;;;;;;;;;;;;15.58;58.53;94510.34;5002036;28;1207;-55
2023/04/17 10:35:16;;;;;;;;;;;;;;;15.78;59.81;94506.84;5013340;28;1042;-53
2023/04/17 10:37:45;;;;;;;;;;;;;;;15.97;59.97;94505.16;5013531;28;1902;-56
2023/04/17 10:40:16;;;;;;;;;;;;;;;16.09;58.87;94511.59;5015128;28;1164;-54
2023/04/17 10:43:00;;;;;;;;;;;;;;;16.25;59.00;94504.88;5019705;28;1052;-55
2023/04/17 10:45:46;;;;;;;;;;;;;;;16.47;58.47;94497.34;5019924;28;1061;-55
2023/04/17 10:48:34;;;;;;;;;;;;;;;16.39;57.83;94494.91;5019798;28;2063;-55
2023/04/17 10:51:01;;;;;;;;;;;;;;;16.64;58.17;94488.75;5020020;28;982;-55
2023/04/17 10:53:37;;;;;;;;;;;;;;;16.63;55.66;94490.63;5002193;28;1092;-55
2023/04/17 10:56:03;;;;;;;;;;;;;;;16.67;55.77;94489.16;5019980;28;1046;-55
2023/04/17 10:58:29;;;;;;;;;;;;;;;16.36;56.03;94488.06;5019492;28;1982;-55
2023/04/17 11:00:55;;;;;;;;;;;;;;;16.16;55.66;94495.38;5019345;28;1113;-54
2023/04/17 11:03:21;;;;;;;;;;;;;;;16.07;55.69;94496.63;5019066;28;1235;-55
2023/04/17 11:05:48;;;;;;;;;;;;;;;15.95;55.96;94482.97;5019928;28;1005;-54
2023/04/17 11:08:14;;;;;;;;;;;;;;;16.00;55.22;94491.28;5018189;28;2824;-55
2023/04/17 11:10:40;;;;;;;;;;;;;;;15.93;54.03;94493.16;5019485;28;1568;-55
2023/04/17 11:13:06;;;;;;;;;;;;;;;15.96;54.57;94492.75;5019279;28;1104;-57
2023/04/17 11:15:35;;;;;;;;;;;;;;;15.89;54.69;94481.13;5017656;28;2107;-56
2023/04/17 11:18:02;;;;;;;;;;;;;;;15.90;54.66;94485.50;4999935;28;1902;-56
2023/04/17 11:20:29;;;;;;;;;;;;;;;15.85;55.71;94483.41;4999826;28;1183;-56
2023/04/17 11:22:56;;;;;;;;;;;;;;;15.85;55.68;94478.03;5004814;28;3039;-55
2023/04/17 11:25:24;;;;;;;;;;;;;;;15.70;57.32;94478.22;5008575;28;982;-55
2023/04/17 11:27:56;;;;;;;;;;;;;;;15.85;58.42;94477.22;4999702;28;1058;-55
2023/04/17 11:30:24;;;;;;;;;;;;;;;16.04;57.53;94472.81;5000047;28;1073;-55
2023/04/17 11:32:50;;;;;;;;;;;;;;;16.47;58.93;94470.38;5002140;28;1226;-56
2023/04/17 11:35:16;;;;;;;;;;;;;;;16.52;55.47;94469.72;5018568;28;1067;-56
2023/04/17 11:38:01;;;;;;;;;;;;;;;16.51;55.19;94468.09;5019475;28;2004;-56
2023/04/17 11:40:29;;;;;;;;;;;;;;;16.86;57.33;94456.91;5019192;28;1058;-56
2023/04/17 11:42:55;;;;;;;;;;;;;;;17.31;57.03;94452.25;5019153;28;1079;-56
2023/04/17 11:45:21;;;;;;;;;;;;;;;17.72;54.09;94458.16;5019204;28;1054;-55
2023/04/17 11:47:47;;;;;;;;;;;;;;;17.76;53.42;94453.94;5019240;28;1102;-56
2023/04/17 11:50:16;;;;;;;;;;;;;;;18.10;52.95;94451.78;5019495;28;1070;-56
2023/04/17 11:52:42;;;;;;;;;;;;;;;18.25;52.70;94438.69;5016054;28;1084;-56
2023/04/17 11:55:08;;;;;;;;;;;;;;;17.93;52.35;94435.31;5016452;28;1049;-56
2023/04/17 11:57:44;;;;;;;;;;;;;;;17.73;52.36;94433.56;5015939;28;1891;-56
2023/04/17 12:00:11;;;;;;;;;;;;;;;17.66;52.48;94434.69;5015432;28;1039;-55
2023/04/17 12:02:37;;;;;;;;;;;;;;;17.65;52.17;94431.16;5015284;28;1866;-55
2023/04/17 12:05:13;;;;;;;;;;;;;;;17.40;50.07;94430.38;5016310;28;1010;-56
2023/04/17 12:07:39;;;;;;;;;;;;;;;17.15;52.38;94421.22;5015645;28;943;-56
2023/04/17 12:10:05;;;;;;;;;;;;;;;17.53;50.30;94427.56;5015465;28;1083;-56
2023/04/17 12:12:31;;;;;;;;;;;;;;;17.67;50.70;94420.13;5015762;28;1560;-56
2023/04/17 12:14:58;;;;;;;;;;;;;;;18.12;50.17;94420.72;5015744;28;984;-56
2023/04/17 12:17:24;;;;;;;;;;;;;;;18.39;48.81;94427.72;5015623;28;1062;-56
2023/04/17 12:19:50;;;;;;;;;;;;;;;18.05;47.49;94424.56;5015577;28;2049;-55
2023/04/17 12:22:16;;;;;;;;;;;;;;;17.96;47.83;94415.91;5015662;28;1027;-56
2023/04/17 12:24:42;;;;;;;;;;;;;;;18.12;48.81;94406.38;5016161;28;1127;-56
2023/04/17 12:27:08;;;;;;;;;;;;;;;18.10;48.65;94408.50;5015678;28;1045;-56
2023/04/17 12:29:34;;;;;;;;;;;;;;;17.90;47.60;94409.50;5015584;28;1042;-56
2023/04/17 12:32:00;;;;;;;;;;;;;;;17.95;49.40;94395.34;5015559;28;1214;-56
2023/04/17 12:34:26;;;;;;;;;;;;;;;17.77;48.49;94396.09;5015048;28;2253;-55
2023/04/17 12:36:52;;;;;;;;;;;;;;;17.46;49.66;94394.34;5006179;28;1613;-54
2023/04/17 12:39:18;;;;;;;;;;;;;;;17.32;50.14;94388.22;5011939;28;1910;-56
2023/04/17 12:41:44;;;;;;;;;;;;;;;17.04;49.95;94384.09;5012521;28;963;-55
2023/04/17 12:44:10;;;;;;;;;;;;;;;16.84;51.04;94376.13;5013630;28;2503;-57
2023/04/17 12:46:36;;;;;;;;;;;;;;;16.59;51.24;94376.06;5015162;28;1044;-55
2023/04/17 12:49:02;;;;;;;;;;;;;;;16.77;51.33;94380.75;5015397;28;1045;-56
2023/04/17 12:51:28;;;;;;;;;;;;;;;17.20;50.31;94385.41;5015209;28;1046;-55
2023/04/17 12:53:55;;;;;;;;;;;;;;;17.02;48.54;94372.69;5015406;28;986;-57
2023/04/17 12:56:21;;;;;;;;;;;;;;;17.01;48.60;94384.53;5015095;28;966;-56
2023/04/17 12:58:47;;;;;;;;;;;;;;;17.22;48.57;94375.22;4997256;28;1906;-56
2023/04/17 13:01:13;;;;;;;;;;;;;;;17.56;48.08;94387.38;5011762;28;1309;-57
2023/04/17 13:03:39;;;;;;;;;;;;;;;17.70;47.44;94385.38;5014051;28;1046;-56